Time;durP1;ratioP1;P1;durP2;ratioP2;P2;SDS_P1;SDS_P2;PMS_P1;PMS_P2;Temp;Humidity;BMP_temperature;BMP_pressure;BME280_temperature;BME280_humidity;BME280_pressure;Samples;Min_cycle;Max_cycle;Signal;HPM_P1;HPM_P2
2023/12/22 00:02:28;;;;;;;13.55;3.45;;;15.20;72.20;;;;;;4125339;28;20132;-52
2023/12/22 00:05:09;;;;;;;21.38;5.05;;;15.20;72.20;;;;;;4153073;28;20056;-53
2023/12/22 00:07:50;;;;;;;16.02;3.38;;;15.30;72.40;;;;;;4154105;28;20555;-54
2023/12/22 00:10:32;;;;;;;13.93;3.20;;;15.40;72.30;;;;;;4153836;28;20615;-52
2023/12/22 00:13:13;;;;;;;23.10;5.00;;;15.40;71.80;;;;;;4153828;28;20150;-49
2023/12/22 00:15:55;;;;;;;19.88;4.50;;;15.40;72.00;;;;;;4137142;28;20498;-50
2023/12/22 00:18:37;;;;;;;13.55;4.30;;;15.50;72.40;;;;;;4153914;28;20056;-49
2023/12/22 00:21:18;;;;;;;7.97;2.55;;;15.50;72.00;;;;;;4149924;28;20052;-53
2023/12/22 00:23:59;;;;;;;9.70;2.90;;;15.60;69.60;;;;;;4153547;28;20181;-50
2023/12/22 00:26:40;;;;;;;12.25;3.10;;;15.60;70.30;;;;;;4153198;28;20128;-51
2023/12/22 00:29:21;;;;;;;13.43;2.50;;;15.60;70.30;;;;;;4153322;28;20076;-50
2023/12/22 00:32:04;;;;;;;14.82;3.17;;;15.60;70.70;;;;;;4141609;28;20057;-49
2023/12/22 00:34:45;;;;;;;9.35;1.70;;;15.60;71.00;;;;;;4137608;28;20104;-52
2023/12/22 00:37:26;;;;;;;14.02;2.25;;;15.60;71.10;;;;;;4121519;28;20058;-56
2023/12/22 00:40:09;;;;;;;8.55;2.22;;;15.60;70.90;;;;;;4127759;28;20057;-54
2023/12/22 00:42:50;;;;;;;10.15;2.22;;;15.50;71.00;;;;;;4177715;28;20095;-53
2023/12/22 00:45:31;;;;;;;10.45;2.63;;;15.50;71.20;;;;;;4188012;28;20052;-56
2023/12/22 00:48:14;;;;;;;10.20;2.97;;;15.50;71.00;;;;;;4172754;28;20078;-56
2023/12/22 00:50:55;;;;;;;14.15;2.53;;;15.50;70.80;;;;;;4173067;28;20056;-56
2023/12/22 00:53:36;;;;;;;14.32;3.22;;;15.40;71.70;;;;;;4172905;28;20056;-53
2023/12/22 00:56:17;;;;;;;13.43;2.85;;;15.50;71.30;;;;;;4172196;28;20064;-56
2023/12/22 00:58:58;;;;;;;11.55;2.45;;;15.50;71.40;;;;;;4165994;28;20182;-56
2023/12/22 01:01:42;;;;;;;4.82;1.88;;;15.50;71.30;;;;;;4189282;28;20074;-54
2023/12/22 01:04:24;;;;;;;12.70;2.70;;;15.60;70.80;;;;;;4186277;28;20052;-55
2023/12/22 01:07:05;;;;;;;11.32;2.75;;;15.60;70.40;;;;;;4189416;28;20043;-56
2023/12/22 01:09:46;;;;;;;15.27;3.70;;;15.60;70.60;;;;;;4189563;28;20102;-56
2023/12/22 01:12:27;;;;;;;13.45;2.97;;;15.70;70.60;;;;;;4176573;28;20411;-54
2023/12/22 01:15:09;;;;;;;15.55;3.40;;;15.60;70.60;;;;;;4189285;28;20497;-56
2023/12/22 01:17:50;;;;;;;14.23;2.95;;;15.60;70.60;;;;;;4188987;28;20048;-55
2023/12/22 01:20:32;;;;;;;15.02;3.30;;;15.60;70.90;;;;;;4189516;28;20060;-55
2023/12/22 01:23:13;;;;;;;15.73;3.65;;;15.60;71.30;;;;;;4172382;28;20060;-56
2023/12/22 01:25:54;;;;;;;17.30;3.13;;;15.60;71.60;;;;;;4156184;28;20060;-56
2023/12/22 01:28:35;;;;;;;13.43;3.00;;;15.60;71.30;;;;;;4179856;28;20056;-56
2023/12/22 01:31:16;;;;;;;11.13;2.40;;;15.60;71.40;;;;;;4172755;28;20083;-56
2023/12/22 01:33:57;;;;;;;21.52;4.07;;;15.60;71.50;;;;;;4188938;28;20121;-55
2023/12/22 01:36:40;;;;;;;17.30;3.65;;;15.50;71.70;;;;;;4188852;28;20486;-55
2023/12/22 01:39:20;;;;;;;14.32;3.58;;;15.50;71.90;;;;;;4187334;28;20059;-54
2023/12/22 01:42:02;;;;;;;19.60;3.28;;;15.40;72.00;;;;;;4172070;28;20166;-53
2023/12/22 01:44:44;;;;;;;14.82;3.72;;;15.40;72.20;;;;;;4155848;28;20129;-54
2023/12/22 01:47:25;;;;;;;15.15;3.78;;;15.40;72.30;;;;;;4172007;28;20622;-54
2023/12/22 01:50:10;;;;;;;17.88;3.47;;;15.30;72.40;;;;;;4172067;28;20059;-56
2023/12/22 01:52:53;;;;;;;18.20;4.00;;;15.40;72.80;;;;;;4180242;28;20059;-56
2023/12/22 01:55:34;;;;;;;14.93;3.53;;;15.40;72.40;;;;;;4177338;28;20057;-54
2023/12/22 01:58:15;;;;;;;;;;;15.40;72.60;;;;;;4172594;28;20079;-56
2023/12/22 02:00:57;;;;;;;24.67;4.00;;;15.40;72.80;;;;;;4172153;28;19975;-56
2023/12/22 02:03:38;;;;;;;;;;;15.40;72.90;;;;;;4171324;28;20721;-56
2023/12/22 02:06:20;;;;;;;13.57;2.90;;;15.50;72.80;;;;;;4158213;28;19928;-56
2023/12/22 02:09:03;;;;;;;13.35;2.80;;;15.60;72.20;;;;;;4157731;28;20064;-53
2023/12/22 02:11:44;;;;;;;12.43;2.53;;;15.70;71.80;;;;;;4177131;28;20540;-54
2023/12/22 02:14:26;;;;;;;9.63;2.45;;;15.70;71.40;;;;;;4171302;28;20187;-56
2023/12/22 02:17:15;;;;;;;11.52;2.63;;;15.80;71.20;;;;;;4168154;28;20056;-52
2023/12/22 02:19:57;;;;;;;11.07;2.60;;;15.80;70.70;;;;;;4170213;28;20056;-55
2023/12/22 02:22:39;;;;;;;13.07;3.38;;;15.80;71.00;;;;;;4171346;28;20809;-56
2023/12/22 02:25:20;;;;;;;15.35;3.20;;;15.90;70.90;;;;;;4171227;28;20052;-55
2023/12/22 02:28:08;;;;;;;14.52;2.90;;;15.90;70.80;;;;;;4163155;28;20056;-54
2023/12/22 02:30:56;;;;;;;5.43;1.40;;;15.90;70.50;;;;;;4182644;28;20048;-55
2023/12/22 02:33:41;;;;;;;4.65;1.73;;;15.90;70.30;;;;;;4187941;28;20412;-57
2023/12/22 02:36:22;;;;;;;5.00;1.20;;;15.90;70.40;;;;;;4187618;28;20060;-57
2023/12/22 02:39:06;;;;;;;5.85;1.40;;;15.90;70.60;;;;;;4187248;28;20059;-56
2023/12/22 02:41:47;;;;;;;6.70;1.52;;;15.90;70.40;;;;;;4187524;28;20063;-57
2023/12/22 02:44:28;;;;;;;5.72;1.60;;;16.00;70.10;;;;;;4184711;28;20178;-57
2023/12/22 02:47:09;;;;;;;;;;;15.90;69.10;;;;;;4188036;28;20056;-57
2023/12/22 02:49:50;;;;;;;22.35;3.92;;;16.00;70.50;;;;;;4183809;28;19932;-56
2023/12/22 02:52:32;;;;;;;10.98;3.10;;;16.00;70.50;;;;;;4184878;28;20059;-56
2023/12/22 02:55:15;;;;;;;14.32;2.75;;;16.00;70.30;;;;;;4171206;28;20182;-55
2023/12/22 02:57:56;;;;;;;10.65;2.30;;;16.10;69.90;;;;;;4154421;28;20052;-58
2023/12/22 03:00:37;;;;;;;11.65;2.38;;;16.00;69.70;;;;;;4170957;28;20106;-57
2023/12/22 03:03:18;;;;;;;15.05;3.63;;;16.00;69.90;;;;;;4174857;28;20070;-57
2023/12/22 03:05:59;;;;;;;11.40;2.78;;;16.00;70.20;;;;;;4170872;28;20392;-57
2023/12/22 03:08:40;;;;;;;10.45;2.60;;;16.10;70.00;;;;;;4187536;28;20506;-56
2023/12/22 03:11:22;;;;;;;6.70;1.63;;;16.00;69.50;;;;;;4186516;28;20118;-57
2023/12/22 03:14:03;;;;;;;6.72;1.75;;;16.00;69.90;;;;;;4186110;28;20051;-57
2023/12/22 03:16:44;;;;;;;5.03;2.08;;;15.90;70.50;;;;;;4186668;28;20529;-57
2023/12/22 03:19:25;;;;;;;5.60;1.70;;;15.90;69.60;;;;;;4184902;28;20071;-58
2023/12/22 03:22:06;;;;;;;6.72;1.75;;;15.90;69.60;;;;;;4187044;28;20187;-54
2023/12/22 03:24:47;;;;;;;9.18;1.90;;;15.80;69.00;;;;;;4170946;28;20071;-55
2023/12/22 03:27:29;;;;;;;6.03;1.70;;;15.80;66.70;;;;;;4170500;28;20423;-55
2023/12/22 03:30:11;;;;;;;4.40;1.50;;;15.70;67.50;;;;;;4180709;28;20067;-55
2023/12/22 03:32:52;;;;;;;4.28;1.45;;;15.70;68.70;;;;;;4187215;28;20059;-56
2023/12/22 03:35:33;;;;;;;9.38;2.13;;;15.60;70.10;;;;;;4177202;28;20112;-52
2023/12/22 03:38:14;;;;;;;8.85;1.73;;;15.60;69.30;;;;;;4158523;28;20052;-56
2023/12/22 03:40:55;;;;;;;6.32;1.90;;;15.60;70.00;;;;;;4152965;28;20048;-56
2023/12/22 03:43:38;;;;;;;11.55;1.90;;;15.50;70.40;;;;;;4154034;28;20530;-54
2023/12/22 03:46:19;;;;;;;11.25;2.80;;;15.50;70.90;;;;;;4170412;28;20055;-57
2023/12/22 03:49:00;;;;;;;10.63;3.08;;;15.50;71.10;;;;;;4170578;28;20062;-55
2023/12/22 03:51:42;;;;;;;;;;;15.60;71.20;;;;;;4168401;28;20051;-56
2023/12/22 03:54:23;;;;;;;15.95;4.35;;;15.60;71.10;;;;;;4170445;28;19981;-56
2023/12/22 03:57:04;;;;;;;11.33;2.57;;;15.70;71.00;;;;;;4159833;28;20060;-56
2023/12/22 03:59:46;;;;;;;9.82;2.35;;;15.70;70.50;;;;;;4161212;28;20415;-55
2023/12/22 04:02:27;;;;;;;10.95;2.10;;;15.80;70.60;;;;;;4175915;28;20059;-56
2023/12/22 04:05:08;;;;;;;7.63;2.10;;;15.70;70.60;;;;;;4185880;28;20067;-56
2023/12/22 04:07:49;;;;;;;12.90;2.25;;;15.80;71.00;;;;;;4171182;28;20055;-56
2023/12/22 04:10:30;;;;;;;5.60;1.83;;;15.80;70.10;;;;;;4187091;28;20059;-56
2023/12/22 04:13:11;;;;;;;7.82;1.60;;;15.70;70.20;;;;;;4187285;28;20056;-56
2023/12/22 04:15:53;;;;;;;7.72;2.40;;;15.60;70.10;;;;;;4187384;28;20056;-47
2023/12/22 04:18:34;;;;;;;7.38;1.60;;;15.60;68.90;;;;;;4172541;28;20052;-51
2023/12/22 04:21:16;;;;;;;6.43;1.88;;;15.50;69.30;;;;;;4173107;28;20047;-51
2023/12/22 04:23:57;;;;;;;5.50;1.80;;;15.40;69.70;;;;;;4177850;28;20060;-52
2023/12/22 04:26:38;;;;;;;8.48;2.50;;;15.30;70.00;;;;;;4188338;28;20515;-50
2023/12/22 04:29:19;;;;;;;11.35;2.80;;;15.20;70.40;;;;;;4188900;28;20060;-53
2023/12/22 04:32:01;;;;;;;7.68;2.10;;;15.10;70.80;;;;;;4188617;28;20376;-53
2023/12/22 04:34:42;;;;;;;15.45;2.90;;;15.10;71.50;;;;;;4189895;28;20060;-51
2023/12/22 04:37:24;;;;;;;17.48;2.83;;;15.00;71.80;;;;;;4189693;28;20059;-53
2023/12/22 04:40:06;;;;;;;13.00;2.88;;;15.10;71.80;;;;;;4189283;28;20101;-52
2023/12/22 04:42:47;;;;;;;11.20;2.78;;;15.00;71.80;;;;;;4171269;28;20067;-50
2023/12/22 04:45:28;;;;;;;15.73;2.88;;;15.00;72.20;;;;;;4157004;28;20405;-52
2023/12/22 04:48:10;;;;;;;14.65;2.85;;;15.10;71.90;;;;;;4172904;28;20060;-49
2023/12/22 04:50:51;;;;;;;11.15;2.63;;;15.20;71.80;;;;;;4178145;28;20113;-51
2023/12/22 04:53:32;;;;;;;12.18;2.40;;;15.30;70.70;;;;;;4189528;28;20063;-49
2023/12/22 04:56:14;;;;;;;7.55;2.15;;;15.40;70.60;;;;;;4188838;28;20593;-52
2023/12/22 04:58:55;;;;;;;12.27;2.97;;;15.50;70.10;;;;;;4187626;28;20407;-48
2023/12/22 05:01:36;;;;;;;11.45;2.90;;;15.60;70.10;;;;;;4176793;28;20499;-51
2023/12/22 05:04:19;;;;;;;17.58;3.03;;;15.70;70.10;;;;;;4174158;28;20056;-49
2023/12/22 05:07:00;;;;;;;13.77;2.40;;;15.80;69.90;;;;;;4172802;28;20052;-49
2023/12/22 05:09:42;;;;;;;9.82;2.60;;;15.90;68.70;;;;;;4175480;28;20522;-50
2023/12/22 05:12:23;;;;;;;14.52;2.70;;;16.00;68.80;;;;;;4189272;28;20056;-52
2023/12/22 05:15:05;;;;;;;13.20;2.33;;;16.10;68.50;;;;;;4174619;28;20047;-50
2023/12/22 05:17:46;;;;;;;;;;;16.10;67.70;;;;;;4189467;28;20411;-56
2023/12/22 05:20:29;;;;;;;5.13;2.30;;;16.20;67.90;;;;;;4189295;28;19966;-55
2023/12/22 05:23:10;;;;;;;10.82;3.17;;;16.20;67.40;;;;;;4188430;28;20055;-54
2023/12/22 05:25:51;;;;;;;;;;;16.20;67.50;;;;;;4188388;28;20122;-56
2023/12/22 05:28:32;;;;;;;12.13;2.83;;;16.30;67.60;;;;;;4172182;28;20355;-57
2023/12/22 05:31:14;;;;;;;9.48;2.72;;;16.40;67.20;;;;;;4186962;28;20052;-55
2023/12/22 05:33:55;;;;;;;13.65;2.50;;;16.40;65.70;;;;;;4172343;28;20091;-54
2023/12/22 05:36:37;;;;;;;7.30;2.30;;;16.40;66.20;;;;;;4171060;28;20475;-54
2023/12/22 05:39:19;;;;;;;10.77;3.17;;;16.40;67.00;;;;;;4180879;28;20051;-55
2023/12/22 05:42:00;;;;;;;8.63;2.78;;;16.40;66.90;;;;;;4169187;28;20088;-56
2023/12/22 05:44:40;;;;;;;12.30;2.65;;;16.40;65.20;;;;;;4172146;28;20060;-55
2023/12/22 05:47:22;;;;;;;9.50;2.63;;;16.40;65.80;;;;;;4172099;28;20064;-55
2023/12/22 05:50:03;;;;;;;12.65;2.38;;;16.30;66.10;;;;;;4157112;28;20053;-55
2023/12/22 05:52:45;;;;;;;;;;;16.20;66.40;;;;;;4172366;28;20523;-56
2023/12/22 05:55:26;;;;;;;13.52;2.65;;;16.20;67.00;;;;;;4155993;28;20343;-56
2023/12/22 05:58:08;;;;;;;11.35;2.80;;;16.20;67.50;;;;;;4160732;28;20506;-55
2023/12/22 06:00:49;;;;;;;19.23;3.38;;;16.20;67.20;;;;;;4171776;28;20066;-53
2023/12/22 06:03:30;;;;;;;10.85;1.90;;;16.20;67.40;;;;;;4177615;28;20070;-51
2023/12/22 06:06:12;;;;;;;10.40;2.65;;;16.20;66.80;;;;;;4180224;28;20404;-53
2023/12/22 06:08:55;;;;;;;18.98;4.57;;;16.20;68.20;;;;;;4174595;28;20055;-56
2023/12/22 06:11:35;;;;;;;14.13;2.92;;;16.20;68.10;;;;;;4155923;28;20130;-55
2023/12/22 06:14:16;;;;;;;11.15;2.72;;;16.30;67.00;;;;;;4171815;28;20059;-53
2023/12/22 06:16:58;;;;;;;14.30;2.75;;;16.40;67.50;;;;;;4171889;28;20072;-54
2023/12/22 06:19:39;;;;;;;14.23;3.40;;;16.30;68.00;;;;;;4154617;28;20057;-55
2023/12/22 06:22:21;;;;;;;11.50;3.20;;;16.30;67.00;;;;;;4177829;28;20048;-54
2023/12/22 06:25:07;;;;;;;;;;;16.30;67.00;;;;;;4174190;28;20084;-54
2023/12/22 06:27:48;;;;;;;12.52;2.60;;;16.40;67.10;;;;;;4177047;28;19928;-54
2023/12/22 06:30:30;;;;;;;17.77;3.05;;;16.30;66.60;;;;;;4187748;28;20182;-49
2023/12/22 06:33:11;;;;;;;;;;;16.30;67.00;;;;;;4188106;28;20060;-47
2023/12/22 06:35:53;;;;;;;16.27;4.53;;;16.30;67.60;;;;;;4185334;28;20062;-49
2023/12/22 06:38:34;;;;;;;16.15;3.33;;;16.30;68.00;;;;;;4169905;28;20055;-51
2023/12/22 06:41:22;;;;;;;13.50;2.78;;;16.30;68.00;;;;;;4159510;28;20056;-50
2023/12/22 06:44:06;;;;;;;18.30;3.40;;;16.30;67.90;;;;;;4187872;28;20055;-53
2023/12/22 06:46:47;;;;;;;9.70;2.45;;;16.30;68.00;;;;;;4187530;28;20064;-50
2023/12/22 06:49:28;;;;;;;11.43;2.40;;;16.30;66.70;;;;;;4171380;28;20043;-49
2023/12/22 06:52:10;;;;;;;10.15;2.67;;;16.40;67.50;;;;;;4179129;28;20091;-51
2023/12/22 06:54:52;;;;;;;8.85;2.33;;;16.40;67.60;;;;;;4187306;28;20054;-49
2023/12/22 06:57:34;;;;;;;9.98;2.20;;;16.40;67.80;;;;;;4187250;28;20134;-51
2023/12/22 07:00:17;;;;;;;4.97;1.58;;;16.30;68.20;;;;;;4186541;28;20098;-52
2023/12/22 07:02:57;;;;;;;10.23;2.47;;;16.30;68.80;;;;;;4186308;28;20059;-53
2023/12/22 07:05:38;;;;;;;9.93;1.80;;;16.30;68.80;;;;;;4184055;28;20052;-55
2023/12/22 07:08:20;;;;;;;9.25;1.90;;;16.30;68.70;;;;;;4169925;28;20052;-49
2023/12/22 07:11:01;;;;;;;14.07;2.13;;;16.30;68.40;;;;;;4160862;28;20060;-54
2023/12/22 07:13:43;;;;;;;8.93;2.33;;;16.30;68.50;;;;;;4185730;28;20063;-49
2023/12/22 07:16:25;;;;;;;7.97;2.30;;;16.30;67.50;;;;;;4186953;28;20129;-58
2023/12/22 07:19:06;;;;;;;9.82;1.73;;;16.30;67.30;;;;;;4187330;28;20175;-58
2023/12/22 07:21:47;;;;;;;12.75;2.53;;;16.30;66.10;;;;;;4185674;28;20059;-51
2023/12/22 07:24:28;;;;;;;10.88;3.17;;;16.30;64.90;;;;;;4176807;28;20590;-50
2023/12/22 07:27:09;;;;;;;14.13;2.70;;;16.20;64.70;;;;;;4187045;28;20056;-61
2023/12/22 07:29:51;;;;;;;10.88;3.00;;;16.10;64.30;;;;;;4187612;28;20180;-60
2023/12/22 07:32:32;;;;;;;15.43;2.53;;;16.10;65.20;;;;;;4186645;28;20051;-60
2023/12/22 07:35:14;;;;;;;15.40;3.58;;;16.00;66.50;;;;;;4170388;28;20507;-60
2023/12/22 07:37:55;;;;;;;7.80;2.25;;;16.10;67.10;;;;;;4169705;28;20506;-60
2023/12/22 07:40:37;;;;;;;16.00;2.50;;;16.00;67.50;;;;;;4180904;28;20071;-60
2023/12/22 07:43:19;;;;;;;8.27;2.30;;;16.10;68.00;;;;;;4170206;28;20412;-60
2023/12/22 07:46:01;;;;;;;9.25;2.17;;;16.00;68.10;;;;;;4168744;28;20059;-60
2023/12/22 07:48:45;;;;;;;8.25;2.20;;;16.00;68.50;;;;;;4174034;28;20044;-60
2023/12/22 07:51:26;;;;;;;8.73;1.83;;;16.10;68.70;;;;;;4187880;28;20075;-60
2023/12/22 07:54:07;;;;;;;12.23;2.00;;;16.10;68.70;;;;;;4189215;28;20047;-60
2023/12/22 07:56:48;;;;;;;9.07;2.15;;;16.10;68.60;;;;;;4171580;28;20052;-60
2023/12/22 07:59:29;;;;;;;6.95;2.08;;;16.20;68.70;;;;;;4176178;28;20109;-60
2023/12/22 08:02:12;;;;;;;11.85;3.33;;;16.20;68.80;;;;;;4179047;28;20499;-60
2023/12/22 08:04:53;;;;;;;7.07;1.83;;;16.20;68.80;;;;;;4182985;28;20052;-60
2023/12/22 08:07:34;;;;;;;9.95;2.20;;;16.30;68.70;;;;;;4166539;28;20405;-60
2023/12/22 08:10:16;;;;;;;9.23;2.22;;;16.30;68.60;;;;;;4178868;28;20074;-60
2023/12/22 08:12:57;;;;;;;;;;;16.30;68.70;;;;;;4189933;28;20055;-60
2023/12/22 08:15:37;;;;;;;14.27;2.90;;;16.30;69.00;;;;;;4178654;28;20467;-60
2023/12/22 08:18:20;;;;;;;10.90;2.42;;;16.30;69.00;;;;;;4160950;28;20075;-60
2023/12/22 08:21:01;;;;;;;13.65;2.10;;;16.40;69.00;;;;;;4156730;28;20060;-60
2023/12/22 08:23:44;;;;;;;12.27;2.50;;;16.40;68.90;;;;;;4156571;28;20188;-62
2023/12/22 08:26:29;;;;;;;14.32;3.08;;;16.40;69.20;;;;;;4172892;28;20052;-60
2023/12/22 08:29:10;;;;;;;14.18;2.80;;;16.40;69.40;;;;;;4178494;28;20397;-59
2023/12/22 08:31:51;;;;;;;11.82;2.85;;;16.40;69.50;;;;;;4186353;28;20050;-59
2023/12/22 08:34:33;;;;;;;13.43;3.28;;;16.40;69.60;;;;;;4182340;28;20076;-60
2023/12/22 08:37:15;;;;;;;20.88;3.40;;;16.40;69.40;;;;;;4182271;28;20190;-63
2023/12/22 08:39:56;;;;;;;14.25;3.38;;;16.30;70.60;;;;;;4172409;28;20063;-59
2023/12/22 08:42:37;;;;;;;14.63;2.63;;;16.30;69.90;;;;;;4172518;28;20502;-62
2023/12/22 08:45:18;;;;;;;14.15;3.47;;;16.30;70.30;;;;;;4180903;28;20052;-63
2023/12/22 08:48:00;;;;;;;16.73;2.83;;;16.30;70.30;;;;;;4174974;28;20091;-61
2023/12/22 08:50:43;;;;;;;10.23;2.30;;;16.20;70.40;;;;;;4180723;28;20060;-62
2023/12/22 08:53:23;;;;;;;16.17;3.17;;;16.20;70.80;;;;;;4188860;28;20063;-64
2023/12/22 08:56:07;;;;;;;13.25;2.47;;;16.10;71.00;;;;;;4188921;28;20059;-61
2023/12/22 08:58:49;;;;;;;17.33;2.95;;;16.10;71.40;;;;;;4188656;28;20063;-60
2023/12/22 09:01:31;;;;;;;12.15;2.55;;;16.00;71.70;;;;;;4186062;28;20068;-62
2023/12/22 09:04:12;;;;;;;11.32;2.83;;;16.10;71.90;;;;;;4166377;28;20056;-62
2023/12/22 09:06:54;;;;;;;11.00;2.83;;;16.10;71.90;;;;;;4162073;28;20190;-63
2023/12/22 09:09:35;;;;;;;12.80;2.40;;;16.20;71.80;;;;;;4173840;28;20063;-63
2023/12/22 09:12:16;;;;;;;12.90;3.00;;;16.20;71.80;;;;;;4172169;28;20059;-62
2023/12/22 09:14:58;;;;;;;11.75;2.28;;;16.30;71.70;;;;;;4183365;28;20384;-63
2023/12/22 09:17:41;;;;;;;9.07;2.42;;;16.30;72.00;;;;;;4172134;28;20055;-63
2023/12/22 09:20:24;;;;;;;13.73;2.58;;;16.30;71.40;;;;;;4179351;28;20047;-62
2023/12/22 09:23:08;;;;;;;12.60;2.47;;;16.30;71.30;;;;;;4171156;28;20071;-62
2023/12/22 09:25:49;;;;;;;14.80;2.10;;;16.30;71.30;;;;;;4172222;28;20064;-62
2023/12/22 09:28:29;;;;;;;10.32;2.35;;;16.30;71.70;;;;;;4172093;28;20720;-63
2023/12/22 09:31:12;;;;;;;11.98;2.88;;;16.20;71.80;;;;;;4172409;28;20400;-63
2023/12/22 09:33:53;;;;;;;6.30;2.33;;;16.10;72.10;;;;;;4157076;28;20160;-63
2023/12/22 09:36:34;;;;;;;10.30;2.30;;;16.10;72.30;;;;;;4175532;28;20594;-62
2023/12/22 09:39:16;;;;;;;15.33;2.83;;;16.00;72.90;;;;;;4178817;28;20499;-65
2023/12/22 09:41:58;;;;;;;16.00;2.58;;;15.90;73.10;;;;;;4174829;28;20291;-63
2023/12/22 09:44:43;;;;;;;13.48;2.10;;;15.90;73.50;;;;;;4188147;28;20391;-63
2023/12/22 09:47:25;;;;;;;10.25;2.05;;;15.80;73.70;;;;;;4188056;28;20129;-62
2023/12/22 09:50:08;;;;;;;16.50;3.17;;;15.90;73.90;;;;;;4187341;28;20245;-67
2023/12/22 09:52:48;;;;;;;12.15;2.60;;;15.90;73.90;;;;;;4187477;28;20514;-65
2023/12/22 09:55:32;;;;;;;12.23;2.85;;;16.00;73.90;;;;;;4188286;28;20178;-62
2023/12/22 09:58:14;;;;;;;6.95;1.80;;;16.00;73.80;;;;;;4171600;28;20052;-64
2023/12/22 10:00:56;;;;;;;16.45;2.80;;;16.00;73.60;;;;;;4187936;28;20415;-63
2023/12/22 10:03:38;;;;;;;11.73;2.85;;;16.00;73.60;;;;;;4188230;28;20155;-61
2023/12/22 10:06:19;;;;;;;12.20;3.03;;;16.00;73.80;;;;;;4187671;28;20047;-60
2023/12/22 10:09:04;;;;;;;16.15;4.20;;;16.00;74.00;;;;;;4185521;28;20495;-63
2023/12/22 10:11:50;;;;;;;10.73;2.05;;;16.10;73.70;;;;;;4187337;28;20039;-63
2023/12/22 10:14:33;;;;;;;6.15;2.13;;;16.20;74.30;;;;;;4170766;28;20067;-63
2023/12/22 10:17:17;;;;;;;13.10;1.92;;;16.20;73.50;;;;;;4187360;28;20063;-62
2023/12/22 10:19:59;;;;;;;6.88;2.63;;;16.20;74.20;;;;;;4168178;28;20056;-63
2023/12/22 10:22:39;;;;;;;;;;;16.20;73.30;;;;;;4181674;28;20044;-63
2023/12/22 10:25:22;;;;;;;12.15;2.25;;;16.20;73.40;;;;;;4176492;28;19931;-63
2023/12/22 10:28:05;;;;;;;16.80;4.00;;;16.20;73.40;;;;;;4167686;28;20214;-62
2023/12/22 10:30:46;;;;;;;14.77;2.10;;;16.20;73.20;;;;;;4181434;28;20055;-62
2023/12/22 10:33:27;;;;;;;7.88;2.15;;;16.20;73.30;;;;;;4174158;28;20064;-62
2023/12/22 10:36:09;;;;;;;8.25;2.72;;;16.10;73.20;;;;;;4171565;28;20048;-62
2023/12/22 10:38:50;;;;;;;9.63;2.10;;;16.00;73.40;;;;;;4182996;28;20182;-62
2023/12/22 10:41:32;;;;;;;12.88;2.45;;;16.00;73.50;;;;;;4173489;28;20584;-62
2023/12/22 10:44:17;;;;;;;10.55;2.28;;;16.00;73.80;;;;;;4183093;28;20051;-62
2023/12/22 10:46:58;;;;;;;12.93;2.75;;;15.80;73.80;;;;;;4183980;28;20511;-62
2023/12/22 10:49:40;;;;;;;18.25;2.63;;;15.80;74.20;;;;;;4182691;28;20047;-63
2023/12/22 10:52:21;;;;;;;11.70;2.80;;;15.70;74.20;;;;;;4167772;28;20056;-62
2023/12/22 10:55:02;;;;;;;7.22;1.70;;;15.60;74.60;;;;;;4168761;28;20561;-62
2023/12/22 10:57:46;;;;;;;8.13;2.20;;;15.60;75.40;;;;;;4174032;28;20055;-62
2023/12/22 11:00:30;;;;;;;11.20;2.13;;;15.60;75.50;;;;;;4168355;28;20385;-62
2023/12/22 11:03:17;;;;;;;12.27;3.22;;;15.60;75.40;;;;;;4184387;28;20146;-62
2023/12/22 11:06:00;;;;;;;13.05;2.22;;;15.70;75.50;;;;;;4177909;28;20133;-62
2023/12/22 11:08:43;;;;;;;8.63;2.15;;;15.70;75.40;;;;;;4178345;28;20404;-62
2023/12/22 11:11:29;;;;;;;11.55;1.77;;;15.70;75.50;;;;;;4168109;28;20064;-61
2023/12/22 11:14:10;;;;;;;7.65;1.73;;;15.70;75.20;;;;;;4174539;28;20059;-62
2023/12/22 11:16:54;;;;;;;;;;;15.70;75.60;;;;;;4170013;28;20056;-61
2023/12/22 11:19:36;;;;;;;8.95;1.50;;;15.80;75.50;;;;;;4174253;28;19973;-60
2023/12/22 11:22:18;;;;;;;6.53;2.03;;;15.80;75.40;;;;;;4173075;28;20056;-61
2023/12/22 11:24:59;;;;;;;;;;;15.70;75.40;;;;;;4167831;28;20056;-62
2023/12/22 11:27:42;;;;;;;10.50;3.50;;;15.70;75.60;;;;;;4170404;28;20078;-62
2023/12/22 11:30:24;;;;;;;12.98;2.50;;;15.70;75.60;;;;;;4176355;28;20060;-61
2023/12/22 11:33:07;;;;;;;8.52;2.05;;;15.70;75.80;;;;;;4179225;28;20052;-61
2023/12/22 11:35:50;;;;;;;8.77;2.45;;;15.70;76.00;;;;;;4175152;28;20052;-61
2023/12/22 11:38:31;;;;;;;8.77;2.45;;;15.70;76.20;;;;;;4169151;28;20055;-61
2023/12/22 11:41:16;;;;;;;6.28;1.98;;;15.70;76.20;;;;;;4181510;28;20507;-62
2023/12/22 11:43:59;;;;;;;9.23;2.30;;;15.60;76.40;;;;;;4170352;28;20522;-61
2023/12/22 11:46:40;;;;;;;11.57;2.85;;;15.60;76.50;;;;;;4172834;28;20495;-61
2023/12/22 11:49:33;;;;;;;12.85;2.25;;;15.60;76.50;;;;;;4172966;28;20106;-61
2023/12/22 11:52:16;;;;;;;7.88;1.75;;;15.50;76.30;;;;;;4169917;28;20052;-62
2023/12/22 11:54:58;;;;;;;11.68;2.28;;;15.50;76.80;;;;;;4174484;28;20093;-61
2023/12/22 11:57:40;;;;;;;12.95;2.30;;;15.40;77.70;;;;;;4167794;28;20098;-61
2023/12/22 12:00:39;;;;;;;7.68;2.55;;;15.40;77.00;;;;;;4177097;28;20055;-60
2023/12/22 12:03:20;;;;;;;7.25;2.63;;;15.30;76.70;;;;;;4182469;28;20059;-61
2023/12/22 12:06:31;;;;;;;14.65;4.60;;;15.30;77.30;;;;;;4167259;28;20059;-61
2023/12/22 12:09:17;;;;;;;12.73;2.42;;;15.30;77.40;;;;;;4176171;28;20105;-61
2023/12/22 12:12:11;;;;;;;8.65;2.40;;;15.20;77.60;;;;;;4176957;28;20056;-61
2023/12/22 12:14:58;;;;;;;10.90;1.90;;;15.20;77.30;;;;;;4175150;28;20060;-62
2023/12/22 12:17:40;;;;;;;13.20;2.72;;;15.10;78.10;;;;;;4174514;28;20071;-61
2023/12/22 12:20:22;;;;;;;;;;;15.00;78.70;;;;;;4167886;28;20056;-60
2023/12/22 12:23:05;;;;;;;13.93;2.60;;;15.00;78.80;;;;;;4170227;28;19936;-61
2023/12/22 12:25:49;;;;;;;12.50;2.60;;;15.00;79.20;;;;;;4167199;28;20087;-60
2023/12/22 12:28:31;;;;;;;10.57;2.30;;;14.90;79.10;;;;;;4167712;28;20083;-61
2023/12/22 12:31:12;;;;;;;10.57;2.50;;;14.90;79.30;;;;;;4169148;28;20091;-61
2023/12/22 12:33:54;;;;;;;10.38;2.00;;;14.90;79.40;;;;;;4171285;28;20075;-61
2023/12/22 12:36:35;;;;;;;10.10;2.83;;;14.80;79.20;;;;;;4169384;28;20075;-61
2023/12/22 12:39:21;;;;;;;12.98;5.30;;;14.80;79.60;;;;;;4175919;28;20572;-61
2023/12/22 12:42:03;;;;;;;9.27;2.97;;;14.80;80.10;;;;;;4171306;28;20124;-61
2023/12/22 12:44:45;;;;;;;11.38;3.22;;;14.80;80.40;;;;;;4169731;28;20568;-61
2023/12/22 12:47:26;;;;;;;11.75;3.15;;;14.70;80.40;;;;;;4178778;28;20510;-61
2023/12/22 12:50:08;;;;;;;16.25;3.88;;;14.80;80.40;;;;;;4178074;28;20125;-61
2023/12/22 12:52:49;;;;;;;12.57;5.40;;;14.80;80.40;;;;;;4171350;28;20056;-61
2023/12/22 12:55:31;;;;;;;;;;;14.90;80.20;;;;;;4171751;28;20076;-61
2023/12/22 12:58:12;;;;;;;;;;;14.90;80.20;;;;;;4176642;28;20295;-61
2023/12/22 13:00:57;;;;;;;8.48;2.78;;;14.90;80.20;;;;;;4177685;28;19935;-61
2023/12/22 13:03:54;;;;;;;12.93;4.45;;;14.90;80.10;;;;;;4169394;28;20087;-60
2023/12/22 13:06:36;;;;;;;17.05;4.40;;;14.90;79.80;;;;;;4182916;28;20067;-61
2023/12/22 13:09:19;;;;;;;12.15;5.10;;;14.90;80.20;;;;;;4175352;28;20089;-61
2023/12/22 13:12:01;;;;;;;14.18;5.82;;;14.90;80.10;;;;;;4175419;28;20179;-61
2023/12/22 13:14:43;;;;;;;11.50;2.60;;;14.90;80.20;;;;;;4168764;28;20052;-61
2023/12/22 13:17:24;;;;;;;11.55;2.13;;;14.80;80.20;;;;;;4176132;28;20187;-60
2023/12/22 13:20:07;;;;;;;13.10;6.68;;;14.80;80.20;;;;;;4178911;28;20066;-60
2023/12/22 13:22:47;;;;;;;15.07;5.25;;;14.80;80.50;;;;;;4173684;28;20456;-60
2023/12/22 13:25:29;;;;;;;12.50;6.18;;;14.80;80.70;;;;;;4169707;28;20067;-61
2023/12/22 13:28:12;;;;;;;15.80;5.32;;;14.80;80.70;;;;;;4171748;28;20052;-61
2023/12/22 13:30:53;;;;;;;12.43;5.55;;;14.80;80.80;;;;;;4169711;28;20175;-60
2023/12/22 13:33:35;;;;;;;15.52;5.50;;;14.90;80.80;;;;;;4182287;28;20043;-61
2023/12/22 13:36:16;;;;;;;10.45;4.00;;;14.90;80.80;;;;;;4170675;28;20060;-60
2023/12/22 13:38:57;;;;;;;15.27;7.68;;;14.80;80.80;;;;;;4177365;28;20052;-60
2023/12/22 13:41:41;;;;;;;11.50;6.30;;;14.80;80.90;;;;;;4171764;28;20059;-60
2023/12/22 13:44:24;;;;;;;11.65;5.32;;;14.80;81.80;;;;;;4175564;28;20102;-60
2023/12/22 13:47:06;;;;;;;21.50;8.70;;;14.90;81.40;;;;;;4180044;28;20056;-61
2023/12/22 13:49:48;;;;;;;15.82;7.65;;;14.90;81.40;;;;;;4169749;28;20070;-61
2023/12/22 13:52:32;;;;;;;7.63;2.70;;;15.00;81.00;;;;;;4169305;28;20056;-60
2023/12/22 13:55:14;;;;;;;12.52;7.30;;;15.10;80.50;;;;;;4169925;28;20099;-60
2023/12/22 13:58:00;;;;;;;15.45;6.90;;;15.20;80.20;;;;;;4169985;28;20522;-60
2023/12/22 14:00:44;;;;;;;10.88;6.32;;;15.30;80.00;;;;;;4172229;28;20051;-60